Time;durP1;ratioP1;P1;durP2;ratioP2;P2;SDS_P1;SDS_P2;PMS_P1;PMS_P2;Temp;Humidity;BMP_temperature;BMP_pressure;BME280_temperature;BME280_humidity;BME280_pressure;Samples;Min_cycle;Max_cycle;Signal;HPM_P1;HPM_P2
2022/07/01 00:01:56;;;;;;;25.42;13.52;;;;;;;14.09;100.00;101406.53;5070752;28;20064;-68
2022/07/01 00:04:25;;;;;;;25.45;15.38;;;;;;;14.06;100.00;101412.31;5070803;28;20081;-68
2022/07/01 00:06:51;;;;;;;22.90;12.70;;;;;;;14.02;100.00;101407.34;5070709;28;20155;-68
2022/07/01 00:09:16;;;;;;;21.20;11.52;;;;;;;13.99;100.00;101401.56;5070690;28;20115;-68
2022/07/01 00:11:42;;;;;;;22.35;10.55;;;;;;;13.96;100.00;101399.28;5070697;28;20128;-67
2022/07/01 00:14:07;;;;;;;21.20;12.93;;;;;;;13.93;100.00;101405.06;5070522;28;20055;-67
2022/07/01 00:16:33;;;;;;;20.15;10.43;;;;;;;13.85;100.00;101395.38;5070585;28;20063;-68
2022/07/01 00:18:58;;;;;;;21.48;11.35;;;;;;;13.87;100.00;101403.22;5070584;28;20040;-68
2022/07/01 00:21:23;;;;;;;20.85;11.75;;;;;;;13.82;100.00;101407.31;5070409;28;20028;-68
2022/07/01 00:23:49;;;;;;;20.55;11.50;;;;;;;13.79;100.00;101407.75;5070432;28;20387;-68
2022/07/01 00:26:14;;;;;;;18.20;9.80;;;;;;;13.77;100.00;101409.78;5070023;28;20052;-68
2022/07/01 00:28:39;;;;;;;18.75;10.50;;;;;;;13.76;100.00;101388.56;5070205;28;20033;-68
2022/07/01 00:31:05;;;;;;;19.65;10.18;;;;;;;13.73;100.00;101387.13;5070249;28;20064;-68
2022/07/01 00:33:30;;;;;;;19.23;9.73;;;;;;;13.71;100.00;101401.75;5070124;28;20025;-67
2022/07/01 00:35:56;;;;;;;18.00;8.73;;;;;;;13.68;100.00;101402.97;5070002;28;20044;-67
2022/07/01 00:38:21;;;;;;;16.63;8.52;;;;;;;13.65;100.00;101391.81;5070268;28;20020;-67
2022/07/01 00:40:53;;;;;;;16.73;9.70;;;;;;;13.58;100.00;101375.75;5070183;28;20433;-68
2022/07/01 00:43:22;;;;;;;19.38;9.48;;;;;;;13.59;100.00;101388.94;5068617;28;20360;-67
2022/07/01 00:45:48;;;;;;;17.73;8.38;;;;;;;13.56;100.00;101385.84;5070024;28;20029;-67
2022/07/01 00:48:15;;;;;;;15.88;8.20;;;;;;;13.57;100.00;101384.78;5069413;28;20028;-68
2022/07/01 00:50:41;;;;;;;17.15;7.68;;;;;;;13.53;100.00;101391.63;5069528;28;20059;-68
2022/07/01 00:53:06;;;;;;;17.27;9.88;;;;;;;13.48;100.00;101378.81;5069832;28;20464;-68
2022/07/01 00:55:31;;;;;;;14.90;8.60;;;;;;;13.50;100.00;101390.16;5069796;28;20036;-67
2022/07/01 00:57:58;;;;;;;19.40;8.93;;;;;;;13.50;100.00;101390.16;5069692;28;20112;-68
2022/07/01 01:00:24;;;;;;;16.73;8.23;;;;;;;13.50;100.00;101387.47;5069773;28;20040;-67
2022/07/01 01:02:49;;;;;;;18.70;8.98;;;;;;;13.53;100.00;101391.63;5069862;28;20051;-67
2022/07/01 01:05:15;;;;;;;18.55;8.77;;;;;;;13.55;100.00;101397.59;5069644;28;20028;-67
2022/07/01 01:07:41;;;;;;;19.02;9.07;;;;;;;13.56;100.00;101399.25;5069537;28;20029;-67
2022/07/01 01:10:06;;;;;;;21.58;9.70;;;;;;;13.57;100.00;101414.28;5069602;28;20039;-68
2022/07/01 01:12:33;;;;;;;20.15;9.27;;;;;;;13.55;100.00;101421.72;5069572;28;20578;-68
2022/07/01 01:14:59;;;;;;;18.77;9.25;;;;;;;13.54;100.00;101434.28;5069557;28;20586;-68
2022/07/01 01:17:24;;;;;;;17.63;9.55;;;;;;;13.56;100.00;101431.41;5069491;28;20075;-67
2022/07/01 01:19:50;;;;;;;20.85;11.18;;;;;;;13.54;100.00;101436.94;5069459;28;20392;-68
2022/07/01 01:22:17;;;;;;;19.92;10.40;;;;;;;13.54;100.00;101446.84;5069426;28;20028;-68
2022/07/01 01:24:44;;;;;;;18.85;10.00;;;;;;;13.54;100.00;101450.34;5069259;28;20032;-67
2022/07/01 01:27:10;;;;;;;23.45;11.57;;;;;;;13.58;100.00;101448.13;5069101;28;20503;-67
2022/07/01 01:29:36;;;;;;;21.52;11.77;;;;;;;13.57;100.00;101447.28;5069388;28;20035;-67
2022/07/01 01:32:03;;;;;;;23.38;11.07;;;;;;;13.57;100.00;101449.97;5069268;28;20032;-67
2022/07/01 01:34:29;;;;;;;20.45;12.23;;;;;;;13.56;100.00;101455.53;5069403;28;20035;-67
2022/07/01 01:36:55;;;;;;;24.75;10.65;;;;;;;13.53;100.00;101456.75;5069328;28;20028;-68
2022/07/01 01:39:20;;;;;;;22.10;12.25;;;;;;;13.52;100.00;101456.97;5069296;28;20033;-68
2022/07/01 01:41:46;;;;;;;22.05;11.60;;;;;;;13.50;100.00;101441.06;5069259;28;20048;-68
2022/07/01 01:44:12;;;;;;;30.13;13.27;;;;;;;13.50;100.00;101440.25;5069248;28;20394;-67
2022/07/01 01:46:38;;;;;;;21.42;10.20;;;;;;;13.47;100.00;101452.19;5069281;28;20081;-67
2022/07/01 01:49:05;;;;;;;20.67;10.57;;;;;;;13.47;100.00;101460.25;5069055;28;20103;-67
2022/07/01 01:51:31;;;;;;;19.60;9.80;;;;;;;13.48;100.00;101469.91;5068676;28;20028;-67
2022/07/01 01:53:56;;;;;;;19.52;10.60;;;;;;;13.50;100.00;101462.50;5069170;28;20036;-67
2022/07/01 01:56:22;;;;;;;20.88;10.18;;;;;;;13.47;100.00;101448.72;5068889;28;20068;-67
2022/07/01 01:58:48;;;;;;;21.50;11.73;;;;;;;13.47;100.00;101446.84;5069094;28;20028;-67
2022/07/01 02:01:13;;;;;;;21.10;12.05;;;;;;;13.47;100.00;101440.66;5071851;28;20024;-67
2022/07/01 02:03:41;;;;;;;20.50;10.77;;;;;;;13.51;100.00;101449.94;5073023;28;20248;-67
2022/07/01 02:06:08;;;;;;;20.42;10.35;;;;;;;13.52;100.00;101446.25;5073078;28;20047;-67
2022/07/01 02:08:33;;;;;;;20.65;10.73;;;;;;;13.50;100.00;101453.66;5072956;28;20024;-67
2022/07/01 02:10:59;;;;;;;23.40;11.35;;;;;;;13.52;100.00;101455.09;5072882;28;20510;-67
2022/07/01 02:13:24;;;;;;;21.55;11.18;;;;;;;13.49;100.00;101447.47;5072880;28;20399;-67
2022/07/01 02:15:50;;;;;;;17.17;9.05;;;;;;;13.49;100.00;101452.00;5072866;28;20079;-67
2022/07/01 02:18:16;;;;;;;20.92;9.88;;;;;;;13.51;100.00;101466.00;5072951;28;20024;-67
2022/07/01 02:20:42;;;;;;;21.52;11.77;;;;;;;13.48;100.00;101466.44;5072856;28;20082;-67
2022/07/01 02:23:08;;;;;;;22.88;10.48;;;;;;;13.43;100.00;101471.56;5072637;28;20040;-68
2022/07/01 02:25:34;;;;;;;17.15;8.88;;;;;;;13.44;100.00;101466.00;5072579;28;20064;-67
2022/07/01 02:28:00;;;;;;;20.10;9.32;;;;;;;13.48;100.00;101482.50;5072419;28;20052;-67
2022/07/01 02:30:26;;;;;;;17.77;10.15;;;;;;;13.47;100.00;101488.91;5072827;28;20039;-67
2022/07/01 02:32:51;;;;;;;20.35;10.40;;;;;;;13.47;100.00;101476.31;5072489;28;20550;-67
2022/07/01 02:35:17;;;;;;;18.88;9.23;;;;;;;13.46;100.00;101479.19;5072469;28;20119;-67
2022/07/01 02:37:43;;;;;;;22.15;10.38;;;;;;;13.46;100.00;101477.31;5072479;28;20025;-68
2022/07/01 02:40:09;;;;;;;21.00;10.27;;;;;;;13.47;100.00;101462.09;5072383;28;20485;-67
2022/07/01 02:42:37;;;;;;;24.73;12.15;;;;;;;13.47;100.00;101457.56;5072327;28;20047;-67
2022/07/01 02:45:04;;;;;;;26.42;12.80;;;;;;;13.44;100.00;101449.94;5072271;28;20028;-67
2022/07/01 02:47:34;;;;;;;24.35;11.70;;;;;;;13.44;100.00;101443.72;5072237;28;20032;-67
2022/07/01 02:50:00;;;;;;;24.08;11.13;;;;;;;13.41;100.00;101444.94;5072255;28;20533;-67
2022/07/01 02:52:26;;;;;;;24.48;12.18;;;;;;;13.40;100.00;101461.25;5072206;28;20032;-67
2022/07/01 02:54:52;;;;;;;20.83;10.85;;;;;;;13.41;100.00;101471.75;5072213;28;20064;-67
2022/07/01 02:57:17;;;;;;;21.13;11.30;;;;;;;13.42;100.00;101460.03;5072097;28;20155;-67
2022/07/01 02:59:43;;;;;;;22.77;12.27;;;;;;;13.43;100.00;101467.00;5072093;28;20111;-67
2022/07/01 03:02:08;;;;;;;19.50;10.38;;;;;;;13.41;100.00;101479.78;5070608;28;20499;-67
2022/07/01 03:04:33;;;;;;;23.38;12.07;;;;;;;13.40;100.00;101488.03;5072091;28;20071;-67
2022/07/01 03:06:59;;;;;;;26.83;11.95;;;;;;;13.41;100.00;101503.91;5071826;28;20073;-67
2022/07/01 03:09:25;;;;;;;25.75;11.80;;;;;;;13.41;100.00;101501.22;5071818;28;20169;-68
2022/07/01 03:11:50;;;;;;;21.70;11.63;;;;;;;13.38;100.00;101486.38;5071124;28;20025;-68
2022/07/01 03:14:16;;;;;;;21.73;10.02;;;;;;;13.35;100.00;101481.41;5071726;28;20033;-68
2022/07/01 03:16:41;;;;;;;22.85;12.23;;;;;;;13.37;100.00;101495.44;5071651;28;20617;-67
2022/07/01 03:19:06;;;;;;;23.20;11.68;;;;;;;13.37;100.00;101502.66;5071759;28;20097;-67
2022/07/01 03:21:32;;;;;;;22.92;11.23;;;;;;;13.37;100.00;101500.81;5071575;28;20028;-67
2022/07/01 03:23:58;;;;;;;24.85;13.10;;;;;;;13.37;100.00;101497.31;5071685;28;20395;-67
2022/07/01 03:26:23;;;;;;;22.00;12.45;;;;;;;13.37;100.00;101483.91;5071295;28;20037;-67
2022/07/01 03:28:49;;;;;;;21.35;11.10;;;;;;;13.35;100.00;101483.28;5071400;28;20071;-68
2022/07/01 03:31:14;;;;;;;26.42;12.23;;;;;;;13.37;100.00;101494.63;5071496;28;20128;-68
2022/07/01 03:33:39;;;;;;;25.02;10.48;;;;;;;13.35;100.00;101494.81;5071404;28;20206;-68
2022/07/01 03:36:05;;;;;;;21.60;10.77;;;;;;;13.40;100.00;101502.25;5071371;28;20612;-67
2022/07/01 03:38:30;;;;;;;25.30;11.73;;;;;;;13.42;100.00;101502.06;5071366;28;20523;-67
2022/07/01 03:40:56;;;;;;;21.55;10.55;;;;;;;13.43;100.00;101504.53;5071287;28;20024;-67
2022/07/01 03:43:21;;;;;;;21.67;10.82;;;;;;;13.44;100.00;101506.19;5071123;28;20051;-67
2022/07/01 03:45:46;;;;;;;23.65;11.20;;;;;;;13.43;100.00;101511.75;5071073;28;20384;-67
2022/07/01 03:48:12;;;;;;;22.88;12.18;;;;;;;13.44;100.00;101510.72;5070930;28;20384;-67
2022/07/01 03:50:37;;;;;;;33.33;13.52;;;;;;;13.45;100.00;101523.09;5071039;28;20161;-67
2022/07/01 03:55:46;;;;;;;22.42;12.00;;;;;;;13.46;100.00;101536.28;5071051;28;20075;-67
2022/07/01 03:58:12;;;;;;;23.13;12.65;;;;;;;13.46;100.00;101536.28;5070837;28;20479;-67
2022/07/01 04:00:38;;;;;;;24.48;12.25;;;;;;;13.43;100.00;101542.03;5070884;28;20539;-64
2022/07/01 04:03:05;;;;;;;23.70;12.35;;;;;;;13.46;100.00;101536.28;5070664;28;20616;-64
2022/07/01 04:05:34;;;;;;;25.20;13.00;;;;;;;13.45;100.00;101531.97;5070657;28;20392;-64
2022/07/01 04:08:00;;;;;;;25.23;13.15;;;;;;;13.46;100.00;101544.31;5070443;28;20035;-64
2022/07/01 04:10:25;;;;;;;24.23;13.05;;;;;;;13.46;100.00;101548.84;5070647;28;20032;-64
2022/07/01 04:12:51;;;;;;;24.67;12.13;;;;;;;13.45;100.00;101550.72;5070545;28;20031;-64
2022/07/01 04:15:17;;;;;;;27.08;15.48;;;;;;;13.46;100.00;101544.31;5070649;28;20029;-64
2022/07/01 04:17:43;;;;;;;27.58;13.77;;;;;;;13.45;100.00;101550.72;5070488;28;20395;-64
2022/07/01 04:20:08;;;;;;;26.58;13.70;;;;;;;13.45;100.00;101545.34;5070368;28;20086;-64
2022/07/01 04:22:35;;;;;;;24.65;13.02;;;;;;;13.46;100.00;101546.19;5070444;28;20033;-65
2022/07/01 04:25:03;;;;;;;26.45;14.98;;;;;;;13.44;100.00;101543.72;5069178;28;20082;-64
2022/07/01 04:27:29;;;;;;;30.80;16.15;;;;;;;13.47;100.00;101546.00;5069928;28;20061;-65
2022/07/01 04:29:55;;;;;;;28.25;14.05;;;;;;;13.38;100.00;101513.16;5070353;28;20032;-64
2022/07/01 04:32:20;;;;;;;27.58;13.18;;;;;;;13.48;100.00;101536.91;5070230;28;20499;-64
2022/07/01 04:34:45;;;;;;;31.80;15.82;;;;;;;13.46;100.00;101528.25;5070064;28;20036;-64
2022/07/01 04:37:12;;;;;;;27.75;15.50;;;;;;;13.43;100.00;101534.00;5070039;28;20028;-64
2022/07/01 04:39:37;;;;;;;22.95;12.50;;;;;;;13.46;100.00;101543.50;5070159;28;20024;-64
2022/07/01 04:42:03;;;;;;;27.92;15.48;;;;;;;13.44;100.00;101542.88;5070144;28;20399;-64
2022/07/01 04:44:33;;;;;;;22.65;14.00;;;;;;;13.45;100.00;101552.56;5069998;28;20032;-65
2022/07/01 04:46:59;;;;;;;30.98;14.52;;;;;;;13.43;100.00;101554.63;5069732;28;20035;-64
2022/07/01 04:49:25;;;;;;;22.73;12.68;;;;;;;13.43;100.00;101562.66;5069757;28;20924;-65
2022/07/01 04:51:51;;;;;;;28.95;15.43;;;;;;;13.40;100.00;101565.75;5069693;28;20089;-64
2022/07/01 04:54:17;;;;;;;25.52;13.02;;;;;;;13.36;100.00;101559.94;5069860;28;20044;-64
2022/07/01 04:56:43;;;;;;;28.02;16.33;;;;;;;13.33;100.00;101563.84;5069881;28;20040;-64
2022/07/01 04:59:08;;;;;;;25.48;13.02;;;;;;;13.24;100.00;101540.88;5069723;28;20020;-65
2022/07/01 05:01:34;;;;;;;24.48;14.63;;;;;;;13.35;100.00;101550.25;5069620;28;20617;-64
2022/07/01 05:03:59;;;;;;;27.42;13.82;;;;;;;13.36;100.00;101558.09;5069449;28;20485;-65
2022/07/01 05:06:25;;;;;;;28.83;15.48;;;;;;;13.44;100.00;101557.13;5069654;28;20379;-64
2022/07/01 05:08:50;;;;;;;25.45;14.68;;;;;;;13.49;100.00;101553.81;5069475;28;20039;-64
2022/07/01 05:11:16;;;;;;;33.22;17.05;;;;;;;13.54;100.00;101557.56;5069516;28;20030;-64
2022/07/01 05:13:42;;;;;;;29.45;16.88;;;;;;;13.58;100.00;101563.38;5069473;28;20097;-64
2022/07/01 05:16:08;;;;;;;28.08;14.20;;;;;;;13.59;100.00;101562.31;5069482;28;20633;-64
2022/07/01 05:24:03;;;;;;;27.70;13.48;;;;;;;13.60;100.00;101555.97;5069449;28;20097;-64
2022/07/01 05:26:28;;;;;;;25.00;13.75;;;;;;;13.59;100.00;101539.03;5069211;28;20036;-65
2022/07/01 05:28:54;;;;;;;25.65;13.85;;;;;;;13.63;100.00;101542.16;5067765;28;20125;-65
2022/07/01 05:31:19;;;;;;;25.15;11.40;;;;;;;13.65;100.00;101542.78;5069185;28;20044;-64
2022/07/01 05:33:46;;;;;;;21.90;12.20;;;;;;;13.68;100.00;101549.59;5069179;28;20063;-64
2022/07/01 05:36:11;;;;;;;23.42;12.15;;;;;;;13.71;100.00;101541.16;5068849;28;20032;-64
2022/07/01 05:38:37;;;;;;;21.58;11.50;;;;;;;13.75;100.00;101542.38;5069027;28;20035;-64
2022/07/01 05:41:02;;;;;;;20.10;9.70;;;;;;;13.79;100.00;101543.66;5069030;28;20024;-64
2022/07/01 05:43:29;;;;;;;20.55;10.68;;;;;;;13.80;100.00;101551.47;5068954;28;20028;-64
2022/07/01 05:45:54;;;;;;;24.13;12.10;;;;;;;13.81;100.00;101547.78;5069173;28;20438;-64
2022/07/01 05:48:19;;;;;;;24.75;11.73;;;;;;;13.84;100.00;101548.41;5068895;28;20086;-65
2022/07/01 05:50:45;;;;;;;20.05;11.30;;;;;;;13.74;100.00;101536.22;5068921;28;20029;-64
2022/07/01 05:53:10;;;;;;;16.90;9.30;;;;;;;13.81;99.96;101553.16;5069216;28;20111;-64
2022/07/01 05:55:35;;;;;;;22.05;10.40;;;;;;;13.85;100.00;101553.56;5068852;28;20455;-65
2022/07/01 05:58:01;;;;;;;17.92;8.98;;;;;;;13.80;98.90;101546.13;5068883;28;20032;-64
2022/07/01 06:00:30;;;;;;;20.02;9.60;;;;;;;13.79;99.09;101565.09;5069090;28;20032;-64
2022/07/01 06:02:55;;;;;;;15.13;8.57;;;;;;;13.74;98.98;101564.88;5068996;28;20055;-64
2022/07/01 06:05:20;;;;;;;15.48;8.75;;;;;;;13.78;99.62;101560.75;5068849;28;20024;-64
2022/07/01 06:07:46;;;;;;;20.15;9.10;;;;;;;13.89;100.00;101560.19;5068933;28;20032;-64
2022/07/01 06:10:11;;;;;;;15.07;8.88;;;;;;;13.94;98.82;101562.28;5068906;28;20120;-64
2022/07/01 06:12:38;;;;;;;19.55;10.30;;;;;;;13.90;98.92;101561.84;5068733;28;20064;-64
2022/07/01 06:15:08;;;;;;;20.30;11.23;;;;;;;13.78;98.54;101545.50;5068744;28;20071;-64
2022/07/01 06:17:37;;;;;;;21.35;8.75;;;;;;;13.73;98.22;101550.66;5068792;28;20051;-64
2022/07/01 06:20:03;;;;;;;23.02;10.38;;;;;;;13.78;98.47;101563.44;5068759;28;20037;-64
2022/07/01 06:22:28;;;;;;;20.60;10.00;;;;;;;13.80;98.40;101561.38;5068962;28;20384;-64
2022/07/01 06:24:54;;;;;;;20.63;10.10;;;;;;;13.91;98.83;101559.97;5068819;28;20037;-64
2022/07/01 06:27:19;;;;;;;17.25;9.98;;;;;;;14.08;99.12;101557.78;5068450;28;20568;-64
2022/07/01 06:29:45;;;;;;;19.38;10.05;;;;;;;14.21;98.41;101552.44;5068566;28;20375;-64
2022/07/01 06:32:10;;;;;;;19.38;9.30;;;;;;;14.31;98.48;101547.50;5068851;28;20036;-65
2022/07/01 06:34:36;;;;;;;21.23;10.73;;;;;;;14.37;96.78;101551.22;5067343;28;20094;-64
2022/07/01 06:37:01;;;;;;;18.50;8.75;;;;;;;14.37;95.38;101552.03;5067205;28;20125;-66
2022/07/01 06:39:28;;;;;;;17.92;8.95;;;;;;;14.30;94.05;101542.31;5068345;28;20056;-65
2022/07/01 06:41:53;;;;;;;18.80;9.63;;;;;;;14.30;93.04;101553.88;5067346;28;20036;-66
2022/07/01 06:44:19;;;;;;;16.25;8.90;;;;;;;14.27;92.71;101556.97;5068602;28;20110;-65
2022/07/01 06:46:44;;;;;;;16.60;8.70;;;;;;;14.20;93.10;101561.50;5051189;28;20036;-66
2022/07/01 06:49:10;;;;;;;19.92;9.15;;;;;;;14.14;93.79;101557.78;5072081;28;20036;-65
2022/07/01 06:51:35;;;;;;;15.57;8.02;;;;;;;14.22;93.74;101556.75;5072215;28;20050;-65
2022/07/01 06:54:01;;;;;;;17.30;8.38;;;;;;;14.37;93.74;101564.63;5072507;28;20059;-65
2022/07/01 06:56:26;;;;;;;17.27;9.18;;;;;;;14.43;93.02;101559.25;5071890;28;20957;-66
2022/07/01 06:58:51;;;;;;;16.67;8.85;;;;;;;14.48;94.32;101558.66;5072126;28;20051;-64
2022/07/01 07:01:17;;;;;;;16.90;8.52;;;;;;;14.61;94.48;101571.31;5071957;28;20111;-65
2022/07/01 07:03:42;;;;;;;15.73;7.70;;;;;;;14.66;91.59;101577.69;5071920;28;20052;-64
2022/07/01 07:06:08;;;;;;;14.70;7.82;;;;;;;14.68;88.91;101574.81;5071979;28;20064;-64
2022/07/01 07:08:33;;;;;;;14.80;8.00;;;;;;;14.75;90.70;101585.53;5071839;28;20036;-64
2022/07/01 07:10:59;;;;;;;15.70;7.78;;;;;;;14.80;90.24;101583.91;5071883;28;20062;-64
2022/07/01 07:13:25;;;;;;;14.70;7.57;;;;;;;14.85;89.36;101589.47;5071765;28;20032;-64
2022/07/01 07:15:50;;;;;;;19.20;7.22;;;;;;;14.87;86.55;101595.47;5071789;28;20024;-65
2022/07/01 07:18:16;;;;;;;13.63;7.18;;;;;;;14.92;86.49;101592.16;5071714;28;20425;-64
2022/07/01 07:20:42;;;;;;;16.48;7.28;;;;;;;14.94;86.89;101592.78;5071725;28;20540;-64
2022/07/01 07:23:07;;;;;;;19.55;8.95;;;;;;;14.96;85.38;101581.81;5071634;28;20109;-64
2022/07/01 07:25:33;;;;;;;15.02;6.32;;;;;;;15.00;84.97;101585.75;5071512;28;20116;-64
2022/07/01 07:27:58;;;;;;;18.77;6.25;;;;;;;15.07;84.52;101613.47;5071257;28;20094;-63
2022/07/01 07:30:24;;;;;;;15.13;6.82;;;;;;;15.12;84.20;101611.78;5071502;28;20036;-65
2022/07/01 07:32:49;;;;;;;15.02;6.40;;;;;;;15.20;83.42;101620.69;5071396;28;20472;-65
2022/07/01 07:35:15;;;;;;;12.40;5.53;;;;;;;15.17;84.39;101621.94;5071422;28;20033;-65
2022/07/01 07:37:41;;;;;;;15.55;6.25;;;;;;;15.23;83.26;101620.25;5071402;28;20021;-64
2022/07/01 07:40:09;;;;;;;13.68;6.97;;;;;;;15.25;83.15;101624.41;5071234;28;20111;-64
2022/07/01 07:42:36;;;;;;;12.50;6.47;;;;;;;15.36;83.74;101630.19;5071151;28;20561;-64
2022/07/01 07:45:02;;;;;;;11.57;6.00;;;;;;;15.47;81.68;101619.59;5071188;28;20082;-64
2022/07/01 07:47:27;;;;;;;13.65;7.00;;;;;;;15.63;85.83;101625.56;5071103;28;20036;-64
2022/07/01 07:49:52;;;;;;;10.93;5.32;;;;;;;15.76;80.85;101637.13;5071068;28;20037;-64
2022/07/01 07:52:18;;;;;;;14.27;6.13;;;;;;;15.88;82.63;101628.41;5070843;28;20036;-64
2022/07/01 07:54:43;;;;;;;13.23;6.13;;;;;;;15.93;82.34;101624.03;5070971;28;20039;-64
2022/07/01 07:57:08;;;;;;;11.85;4.82;;;;;;;15.87;77.36;101619.50;5070891;28;20123;-64
2022/07/01 07:59:35;;;;;;;8.27;4.75;;;;;;;15.86;78.61;101631.31;5070609;28;20063;-64
2022/07/01 08:02:00;;;;;;;7.10;3.30;;;;;;;15.90;78.43;101631.69;5070849;28;20047;-64
2022/07/01 08:04:26;;;;;;;11.07;5.38;;;;;;;15.99;77.95;101633.94;5070811;28;20032;-64
2022/07/01 08:06:51;;;;;;;8.38;3.53;;;;;;;16.08;75.43;101629.13;5070771;28;20034;-64
2022/07/01 08:09:17;;;;;;;11.60;4.55;;;;;;;16.01;74.94;101628.38;5070502;28;20069;-64
2022/07/01 08:11:42;;;;;;;7.38;4.78;;;;;;;16.21;74.56;101636.31;5070497;28;20035;-64
2022/07/01 08:14:07;;;;;;;8.50;4.03;;;;;;;16.57;73.40;101632.19;5070627;28;20048;-64
2022/07/01 08:16:33;;;;;;;9.07;3.85;;;;;;;17.39;70.58;101643.78;5070572;28;20029;-64
2022/07/01 08:18:58;;;;;;;6.43;3.47;;;;;;;18.71;67.84;101634.28;5070446;28;20028;-64
2022/07/01 08:21:23;;;;;;;6.45;3.47;;;;;;;20.41;61.52;101632.34;5070354;28;20071;-64
2022/07/01 08:23:49;;;;;;;5.00;2.85;;;;;;;22.29;53.48;101630.75;5070272;28;20111;-65
2022/07/01 08:26:16;;;;;;;4.45;2.60;;;;;;;23.40;49.09;101642.03;5070021;28;20034;-65
2022/07/01 08:28:42;;;;;;;8.23;2.75;;;;;;;24.49;48.10;101644.91;5070284;28;20036;-65
2022/07/01 08:31:08;;;;;;;7.28;3.20;;;;;;;25.58;45.34;101639.13;5069033;28;20042;-65
2022/07/01 08:33:33;;;;;;;4.75;2.10;;;;;;;25.60;43.35;101647.84;5070303;28;20024;-65
2022/07/01 08:35:58;;;;;;;7.32;2.88;;;;;;;26.14;42.39;101652.53;5070100;28;20483;-65
2022/07/01 08:38:24;;;;;;;2.78;1.98;;;;;;;27.04;41.63;101648.63;5070005;28;20031;-65
2022/07/01 08:40:49;;;;;;;6.00;1.80;;;;;;;27.46;38.17;101662.75;5069969;28;20036;-65
2022/07/01 08:43:15;;;;;;;3.67;2.40;;;;;;;27.20;38.52;101657.53;5069866;28;20082;-65
2022/07/01 08:45:41;;;;;;;4.05;1.55;;;;;;;27.63;36.86;101662.28;5070103;28;20028;-65
2022/07/01 08:48:06;;;;;;;1.42;1.00;;;;;;;28.39;36.91;101664.03;5068609;28;20031;-65
2022/07/01 08:50:39;;;;;;;4.28;1.10;;;;;;;28.81;35.76;101661.47;5069756;28;20020;-65
2022/07/01 08:53:06;;;;;;;3.00;1.20;;;;;;;28.93;33.42;101661.03;5069724;28;20039;-65
2022/07/01 08:55:32;;;;;;;3.78;1.25;;;;;;;28.54;33.18;101659.47;5069828;28;20032;-65
2022/07/01 08:57:58;;;;;;;2.05;1.05;;;;;;;28.00;33.99;101667.06;5070007;28;20025;-65
2022/07/01 09:00:30;;;;;;;2.45;0.90;;;;;;;27.95;36.11;101667.94;5069721;28;20039;-66
2022/07/01 09:02:57;;;;;;;2.67;1.40;;;;;;;28.58;35.38;101665.97;5069961;28;20039;-66
2022/07/01 09:05:24;;;;;;;1.80;1.52;;;;;;;29.02;33.50;101672.94;5069554;28;20039;-65
2022/07/01 09:07:56;;;;;;;1.95;1.05;;;;;;;28.47;36.91;101662.56;5069531;28;20021;-65
2022/07/01 09:10:23;;;;;;;1.52;1.27;;;;;;;27.08;37.24;101668.84;5068870;28;20058;-65
2022/07/01 09:12:49;;;;;;;2.70;1.05;;;;;;;25.17;40.42;101669.25;5069767;28;20115;-65
2022/07/01 09:15:22;;;;;;;5.13;1.98;;;;;;;23.34;43.07;101676.56;5069563;28;20477;-65
2022/07/01 09:17:47;;;;;;;2.78;1.20;;;;;;;22.13;45.87;101660.72;5069447;28;20056;-68
2022/07/01 09:20:33;;;;;;;2.70;1.20;;;;;;;21.27;49.69;101663.88;5069402;28;20083;-68
2022/07/01 09:23:02;;;;;;;2.33;1.30;;;;;;;20.69;51.74;101660.50;5069465;28;20499;-68
2022/07/01 09:25:39;;;;;;;4.47;1.65;;;;;;;20.35;53.14;101666.63;5069334;28;20031;-67
2022/07/01 09:28:07;;;;;;;4.13;1.70;;;;;;;20.05;52.74;101663.34;5069009;28;20052;-67
2022/07/01 09:30:34;;;;;;;6.78;2.35;;;;;;;19.86;53.16;101662.69;5067827;28;20114;-67
2022/07/01 09:33:07;;;;;;;1.30;1.20;;;;;;;19.79;54.59;101670.13;5069211;28;20036;-68
2022/07/01 09:35:34;;;;;;;2.22;1.50;;;;;;;19.59;54.05;101676.69;5069211;28;20467;-68
2022/07/01 09:37:59;;;;;;;2.58;1.80;;;;;;;19.57;53.29;101668.00;5069258;28;20042;-68
2022/07/01 09:40:25;;;;;;;1.77;1.20;;;;;;;19.62;53.50;101668.13;5069378;28;20422;-68
2022/07/01 09:42:50;;;;;;;4.57;1.95;;;;;;;19.68;54.15;101679.91;5069195;28;20032;-68
2022/07/01 09:45:16;;;;;;;3.80;1.98;;;;;;;19.66;54.55;101674.72;5069192;28;20072;-68
2022/07/01 09:47:45;;;;;;;3.47;1.58;;;;;;;19.62;54.17;101672.69;5069161;28;20375;-68
2022/07/01 09:50:10;;;;;;;5.15;1.65;;;;;;;19.52;55.79;101681.41;5068972;28;20032;-68
2022/07/01 09:52:37;;;;;;;3.30;1.50;;;;;;;19.55;55.99;101675.53;5069057;28;20090;-68
2022/07/01 09:55:06;;;;;;;7.05;2.70;;;;;;;19.80;55.15;101680.69;5068976;28;20441;-68
2022/07/01 09:57:31;;;;;;;3.25;1.50;;;;;;;19.88;54.38;101688.44;5068891;28;20391;-68
2022/07/01 09:59:57;;;;;;;1.83;1.33;;;;;;;20.03;55.57;101692.53;5069061;28;20029;-68
2022/07/01 10:02:24;;;;;;;2.53;1.50;;;;;;;19.90;53.14;101701.75;5069084;28;20034;-68
2022/07/01 10:04:54;;;;;;;3.20;1.35;;;;;;;19.70;53.46;101707.53;5068985;28;20048;-68
2022/07/01 10:07:25;;;;;;;2.15;1.70;;;;;;;19.63;56.01;101707.63;5069009;28;20468;-68
2022/07/01 10:10:04;;;;;;;4.00;1.40;;;;;;;19.64;53.48;101703.03;5068682;28;20028;-68
2022/07/01 10:12:33;;;;;;;3.97;3.08;;;;;;;19.70;53.22;101712.94;5069035;28;20649;-67
2022/07/01 10:15:00;;;;;;;5.10;2.65;;;;;;;19.63;52.51;101701.41;5068964;28;20509;-67
2022/07/01 10:17:32;;;;;;;9.20;1.65;;;;;;;19.56;55.61;101709.63;5068971;28;20430;-67
2022/07/01 10:20:06;;;;;;;;;;;;;;;19.67;55.13;101706.13;5069492;28;20059;-67
2022/07/01 10:22:35;;;;;;;4.68;1.55;;;;;;;19.54;51.51;101713.63;5071760;28;19973;-67
2022/07/01 10:25:30;;;;;;;2.60;1.52;;;;;;;19.24;52.64;101728.09;5072674;28;20032;-67
2022/07/01 10:28:26;;;;;;;5.30;1.65;;;;;;;19.04;53.39;101729.22;5072594;28;20526;-67
2022/07/01 10:30:56;;;;;;;3.50;1.25;;;;;;;19.02;50.54;101730.50;5072482;28;20040;-67
2022/07/01 10:33:34;;;;;;;5.70;1.98;;;;;;;18.92;53.68;101724.84;5072502;28;20479;-68
2022/07/01 10:36:07;;;;;;;7.28;1.80;;;;;;;18.90;54.04;101735.88;5072501;28;20040;-68
2022/07/01 10:38:32;;;;;;;3.22;1.73;;;;;;;19.13;54.60;101734.31;5072541;28;20024;-68
2022/07/01 10:41:09;;;;;;;2.10;1.13;;;;;;;19.58;56.60;101733.75;5072517;28;20513;-69
2022/07/01 10:43:36;;;;;;;2.90;1.38;;;;;;;19.98;52.98;101725.75;5072344;28;20403;-68
2022/07/01 10:46:02;;;;;;;3.55;1.38;;;;;;;19.85;51.57;101716.00;5072268;28;20043;-68
2022/07/01 10:48:31;;;;;;;4.65;1.73;;;;;;;19.89;55.43;101717.19;5072156;28;20089;-68
2022/07/01 10:50:57;;;;;;;7.35;1.58;;;;;;;20.05;56.11;101718.31;5072281;28;20392;-68
2022/07/01 10:53:23;;;;;;;2.90;1.40;;;;;;;19.71;52.38;101720.03;5072044;28;20024;-68
2022/07/01 10:55:51;;;;;;;4.90;1.67;;;;;;;19.60;52.28;101721.66;5071926;28;20093;-68
2022/07/01 10:58:20;;;;;;;4.32;1.65;;;;;;;19.51;53.55;101714.09;5072116;28;20433;-71
2022/07/01 11:00:51;;;;;;;4.82;1.20;;;;;;;19.45;52.48;101711.28;5072100;28;20051;-68
2022/07/01 11:03:22;;;;;;;4.93;1.50;;;;;;;19.65;56.85;101708.22;5071616;28;20495;-69
2022/07/01 11:05:51;;;;;;;3.28;1.30;;;;;;;19.67;53.03;101716.94;5072079;28;20327;-68
2022/07/01 11:08:17;;;;;;;2.70;1.45;;;;;;;19.27;53.59;101717.63;5071755;28;20498;-69
2022/07/01 11:10:43;;;;;;;6.28;2.20;;;;;;;19.31;53.10;101711.72;5071828;28;20048;-68
2022/07/01 11:13:13;;;;;;;3.47;1.33;;;;;;;19.29;53.77;101716.56;5071828;28;20027;-68
2022/07/01 11:15:39;;;;;;;3.40;1.38;;;;;;;19.07;55.19;101719.81;5071851;28;20024;-68
2022/07/01 11:18:05;;;;;;;2.47;1.30;;;;;;;19.20;54.66;101716.06;5071698;28;20029;-68